AAL598 KBDL-KDCA
Flight info
| Callsign | AAL598 |
|---|---|
| Flight time | 0h 56m |
| Altitude | 28000 |
| Route | VEERS PWL BIZEX Q75 MXE CLIPR3 |
| Aircraft | B738/M-SDE2E3FGHIRWXY/LB1 |
Departure
| Time | 2025-12-31 20:59 |
|---|---|
| Airport | Bradley International Airport (KBDL) |
Arrival
| Time | 2025-12-31 21:56 |
|---|---|
| Airport | Ronald Reagan Washington National Airport (KDCA) |
| Time | Latitude | Longitude | Altitude | Speed | Heading |
|---|---|---|---|---|---|
| 2025-12-31 20:43 | 41.93016 | -72.68180 | 213 ft | 0 kts | 180° |
| 2025-12-31 20:49 | 41.93057 | -72.68179 | 209 ft | 2 kts | 180° |
| 2025-12-31 20:50 | 41.93076 | -72.68178 | 210 ft | 1 kts | 167° |
| 2025-12-31 20:50 | 41.93110 | -72.68138 | 207 ft | 8 kts | 15° |
| 2025-12-31 20:51 | 41.93287 | -72.68273 | 207 ft | 20 kts | 323° |
| 2025-12-31 20:51 | 41.93487 | -72.68503 | 204 ft | 18 kts | 312° |
| 2025-12-31 20:51 | 41.93571 | -72.68627 | 207 ft | 18 kts | 312° |
| 2025-12-31 20:52 | 41.93728 | -72.68692 | 210 ft | 15 kts | 43° |
| 2025-12-31 20:53 | 41.93961 | -72.68403 | 217 ft | 16 kts | 43° |
| 2025-12-31 20:53 | 41.94114 | -72.68214 | 210 ft | 14 kts | 43° |
| 2025-12-31 20:54 | 41.94201 | -72.68114 | 209 ft | 14 kts | 40° |
| 2025-12-31 20:55 | 41.94204 | -72.68110 | 208 ft | 14 kts | 40° |
| 2025-12-31 20:56 | 41.94355 | -72.67927 | 206 ft | 24 kts | 44° |
| 2025-12-31 20:57 | 41.94788 | -72.67366 | 207 ft | 27 kts | 44° |
| 2025-12-31 20:57 | 41.95032 | -72.67201 | 219 ft | 16 kts | 283° |
| 2025-12-31 20:58 | 41.94896 | -72.67443 | 213 ft | 42 kts | 224° |
| 2025-12-31 20:58 | 41.93712 | -72.69057 | 506 ft | 174 kts | 227° |
| 2025-12-31 20:58 | 41.92800 | -72.70246 | 1447 ft | 186 kts | 224° |
| 2025-12-31 20:59 | 41.91149 | -72.72132 | 4379 ft | 131 kts | 228° |
| 2025-12-31 20:59 | 41.90464 | -72.74762 | 5155 ft | 184 kts | 229° |
| 2025-12-31 21:00 | 41.88254 | -72.77343 | 5662 ft | 238 kts | 225° |
| 2025-12-31 21:01 | 41.84509 | -72.82094 | 8453 ft | 248 kts | 228° |
| 2025-12-31 21:01 | 41.82039 | -72.85363 | 10341 ft | 253 kts | 229° |
| 2025-12-31 21:01 | 41.80742 | -72.87113 | 10666 ft | 278 kts | 229° |
| 2025-12-31 21:02 | 41.76240 | -72.93236 | 12140 ft | 322 kts | 229° |
| 2025-12-31 21:02 | 41.74682 | -72.95357 | 12978 ft | 325 kts | 229° |
| 2025-12-31 21:03 | 41.71458 | -72.99760 | 14408 ft | 336 kts | 230° |
| 2025-12-31 21:03 | 41.68217 | -73.04184 | 15893 ft | 341 kts | 230° |
| 2025-12-31 21:04 | 41.64861 | -73.08764 | 17343 ft | 348 kts | 230° |
| 2025-12-31 21:05 | 41.59695 | -73.15805 | 19301 ft | 358 kts | 230° |
| 2025-12-31 21:05 | 41.56167 | -73.20603 | 20499 ft | 365 kts | 230° |
| 2025-12-31 21:06 | 41.52576 | -73.25480 | 21649 ft | 372 kts | 230° |
| 2025-12-31 21:06 | 41.50778 | -73.27919 | 22198 ft | 375 kts | 230° |
| 2025-12-31 21:06 | 41.47086 | -73.32920 | 23207 ft | 383 kts | 230° |
| 2025-12-31 21:07 | 41.43320 | -73.38012 | 24122 ft | 388 kts | 230° |
| 2025-12-31 21:07 | 41.39504 | -73.43161 | 24967 ft | 393 kts | 230° |
| 2025-12-31 21:09 | 41.29724 | -73.56322 | 26926 ft | 406 kts | 230° |
| 2025-12-31 21:10 | 41.17527 | -73.76039 | 28043 ft | 402 kts | 236° |
| 2025-12-31 21:13 | 41.03322 | -73.99737 | 28065 ft | 402 kts | 237° |
| 2025-12-31 21:14 | 40.96477 | -74.11138 | 28074 ft | 401 kts | 237° |
| 2025-12-31 21:16 | 40.89946 | -74.21977 | 28086 ft | 400 kts | 237° |
| 2025-12-31 21:18 | 40.74359 | -74.47737 | 28078 ft | 400 kts | 238° |
| 2025-12-31 21:21 | 40.58746 | -74.73465 | 28070 ft | 400 kts | 238° |
| 2025-12-31 21:22 | 40.45446 | -74.92426 | 28091 ft | 402 kts | 235° |
| 2025-12-31 21:24 | 40.32157 | -75.11110 | 28075 ft | 402 kts | 236° |
| 2025-12-31 21:26 | 40.14953 | -75.35122 | 28096 ft | 402 kts | 236° |
| 2025-12-31 21:28 | 40.01592 | -75.53614 | 28096 ft | 403 kts | 236° |
| 2025-12-31 21:31 | 39.84826 | -75.80415 | 24590 ft | 355 kts | 246° |
| 2025-12-31 21:31 | 39.82093 | -75.85701 | 23625 ft | 349 kts | 245° |
| 2025-12-31 21:31 | 39.80736 | -75.88304 | 23078 ft | 346 kts | 245° |
| 2025-12-31 21:32 | 39.78059 | -75.93425 | 22101 ft | 338 kts | 245° |
| 2025-12-31 21:33 | 39.74214 | -76.00755 | 20751 ft | 326 kts | 244° |
| 2025-12-31 21:33 | 39.71674 | -76.05594 | 19810 ft | 321 kts | 244° |
| 2025-12-31 21:34 | 39.69170 | -76.10352 | 18923 ft | 316 kts | 244° |
| 2025-12-31 21:34 | 39.66704 | -76.15032 | 18064 ft | 313 kts | 243° |
| 2025-12-31 21:35 | 39.64251 | -76.19684 | 17145 ft | 313 kts | 243° |
| 2025-12-31 21:35 | 39.61724 | -76.24478 | 16249 ft | 325 kts | 243° |
| 2025-12-31 21:35 | 39.60453 | -76.26873 | 15788 ft | 321 kts | 243° |
| 2025-12-31 21:36 | 39.57552 | -76.31228 | 14886 ft | 329 kts | 224° |
| 2025-12-31 21:37 | 39.51852 | -76.36079 | 13543 ft | 323 kts | 222° |
| 2025-12-31 21:37 | 39.48172 | -76.39270 | 12653 ft | 317 kts | 222° |
| 2025-12-31 21:38 | 39.44542 | -76.42422 | 11866 ft | 308 kts | 222° |
| 2025-12-31 21:38 | 39.41013 | -76.45483 | 11645 ft | 316 kts | 222° |
| 2025-12-31 21:38 | 39.39157 | -76.47103 | 11505 ft | 325 kts | 222° |
| 2025-12-31 21:39 | 39.35386 | -76.50365 | 11245 ft | 324 kts | 221° |
| 2025-12-31 21:39 | 39.31653 | -76.53575 | 11016 ft | 319 kts | 221° |
| 2025-12-31 21:40 | 39.28088 | -76.56631 | 10804 ft | 295 kts | 222° |
| 2025-12-31 21:41 | 39.23276 | -76.60784 | 10457 ft | 263 kts | 223° |
| 2025-12-31 21:41 | 39.20274 | -76.63377 | 10284 ft | 257 kts | 223° |
| 2025-12-31 21:42 | 39.17315 | -76.65926 | 10101 ft | 254 kts | 224° |
| 2025-12-31 21:42 | 39.14683 | -76.68848 | 9947 ft | 252 kts | 232° |
| 2025-12-31 21:42 | 39.13397 | -76.70413 | 9864 ft | 255 kts | 232° |
| 2025-12-31 21:43 | 39.11259 | -76.72992 | 9724 ft | 252 kts | 231° |
| 2025-12-31 21:43 | 39.09880 | -76.76671 | 9284 ft | 230 kts | 284° |
| 2025-12-31 21:44 | 39.11395 | -76.80312 | 8773 ft | 231 kts | 298° |
| 2025-12-31 21:45 | 39.13834 | -76.85441 | 7967 ft | 222 kts | 298° |
| 2025-12-31 21:45 | 39.14645 | -76.87125 | 7710 ft | 221 kts | 298° |
| 2025-12-31 21:46 | 39.17232 | -76.92364 | 6236 ft | 239 kts | 298° |
| 2025-12-31 21:46 | 39.18125 | -76.94157 | 5733 ft | 243 kts | 298° |
| 2025-12-31 21:46 | 39.19644 | -76.98053 | 4683 ft | 247 kts | 269° |
| 2025-12-31 21:47 | 39.17754 | -77.01419 | 3725 ft | 264 kts | 200° |
| 2025-12-31 21:48 | 39.12794 | -77.03647 | 2475 ft | 245 kts | 215° |
| 2025-12-31 21:48 | 39.11377 | -77.04824 | 2091 ft | 237 kts | 212° |
| 2025-12-31 21:49 | 39.07372 | -77.07811 | 1945 ft | 204 kts | 210° |
| 2025-12-31 21:49 | 39.04870 | -77.08897 | 1955 ft | 180 kts | 192° |
| 2025-12-31 21:50 | 39.02468 | -77.09477 | 1999 ft | 176 kts | 193° |
| 2025-12-31 21:50 | 39.01268 | -77.09783 | 1998 ft | 176 kts | 194° |
| 2025-12-31 21:50 | 38.98889 | -77.10399 | 1986 ft | 173 kts | 194° |
| 2025-12-31 21:51 | 38.96629 | -77.10988 | 1972 ft | 161 kts | 194° |
| 2025-12-31 21:51 | 38.94412 | -77.11568 | 1749 ft | 167 kts | 194° |
| 2025-12-31 21:52 | 38.92245 | -77.11066 | 1219 ft | 166 kts | 150° |
| 2025-12-31 21:53 | 38.90524 | -77.07960 | 792 ft | 140 kts | 103° |
| 2025-12-31 21:53 | 38.89757 | -77.05722 | 559 ft | 136 kts | 149° |
| 2025-12-31 21:53 | 38.88975 | -77.05030 | 494 ft | 134 kts | 153° |
| 2025-12-31 21:54 | 38.87367 | -77.03965 | 281 ft | 127 kts | 178° |
| 2025-12-31 21:54 | 38.85700 | -77.03830 | 28 ft | 107 kts | 178° |
| 2025-12-31 21:55 | 38.84901 | -77.03782 | 22 ft | 15 kts | 206° |
| 2025-12-31 21:55 | 38.84955 | -77.03895 | 23 ft | 9 kts | 353° |
| 2025-12-31 21:56 | 38.85070 | -77.03914 | 23 ft | 8 kts | 353° |
| 2025-12-31 21:57 | 38.85232 | -77.03940 | 24 ft | 7 kts | 353° |
| 2025-12-31 21:57 | 38.85282 | -77.03948 | 23 ft | 7 kts | 353° |
| 2025-12-31 21:57 | 38.85437 | -77.03973 | 24 ft | 25 kts | 353° |
| 2025-12-31 21:58 | 38.85637 | -77.04119 | 23 ft | 11 kts | 268° |
| 2025-12-31 21:58 | 38.85634 | -77.04163 | 23 ft | 0 kts | 265° |